Hauptseite
METAR-TAF:

METAR-TAF

Flughäfen :

Pjöngjang, Nordkorea

Flughafen Sunan

Breite: 39-02N, Länge: 125-47E, Höhe: 36 m

METAR: fehlend

Zeit: 08:19 (23:49 UTC)

Prognose

Neuester Wetterbericht von vor 2 Stunden und 9 Minuten, um 21:40 UTC
Gültige Prognose vom 17 um 00 UTC bis 17 um 24 UTC
Wind 8 kt aus Nordost
Sichtweite: 8000 m
Geschlossene Wolkendecke in der Höhe von 2300 ft
Zeitweise
vom 17 um 00 UTC bis 17 um 06 UTC
Sichtweite: 6000 m
Leichtregen

TAF: ZKPY 162140Z 1700/1724 05004MPS 8000 OVC023 TEMPO 1700/1706 6000 -RA

Wetterbeobachtungen und Prognosen von mehr als 4000 Flughäfen (METAR und TAF Bericht).

Die verfügbaren Stationen werden durch gelbe und rote Markierungen auf der Karte dargestellt.

Führen Sie die Maus auf sie, um den Namen der Station zu sehen.

Darauf klicken, um die Beobachtung von Wetterbeobachtungen und Prognosen zu sehen.

Um die Karte zu ändern : klicken Sie auf den grünen Tasten mit einem schwarzen Kreuz Zum Vergrößern, auf den grünen Button mit einem Gedankenstrich zu verkleinern, oder auf die grünen Pfeile für benachbarte Karten.


METAR-TAF: